sensor_id;sensor_type;location;lat;lon;timestamp;pressure;altitude;pressure_sealevel;temperature;humidity
45323;BME280;31382;50.200;8.674;2022-11-15T00:04:22;100041.09;;;10.79;70.44
45323;BME280;31382;50.200;8.674;2022-11-15T00:09:24;100035.25;;;10.75;70.34
45323;BME280;31382;50.200;8.674;2022-11-15T00:14:25;100044.59;;;10.79;70.64
45323;BME280;31382;50.200;8.674;2022-11-15T00:19:26;100035.72;;;10.79;70.69
45323;BME280;31382;50.200;8.674;2022-11-15T00:24:28;100027.09;;;10.68;70.92
45323;BME280;31382;50.200;8.674;2022-11-15T00:29:29;100028.09;;;10.67;70.83
45323;BME280;31382;50.200;8.674;2022-11-15T00:34:31;100027.34;;;10.74;70.96
45323;BME280;31382;50.200;8.674;2022-11-15T00:39:32;100010.41;;;10.73;70.72
45323;BME280;31382;50.200;8.674;2022-11-15T00:44:33;100024.28;;;10.62;71.16
45323;BME280;31382;50.200;8.674;2022-11-15T00:49:35;100016.22;;;10.62;70.89
45323;BME280;31382;50.200;8.674;2022-11-15T00:54:36;100009.38;;;10.59;71.02
45323;BME280;31382;50.200;8.674;2022-11-15T00:59:37;100009.94;;;10.55;70.96
45323;BME280;31382;50.200;8.674;2022-11-15T01:04:39;100004.25;;;10.49;70.67
45323;BME280;31382;50.200;8.674;2022-11-15T01:09:40;99999.91;;;10.48;71.04
45323;BME280;31382;50.200;8.674;2022-11-15T01:14:42;99994.34;;;10.50;70.91
45323;BME280;31382;50.200;8.674;2022-11-15T01:19:43;100004.25;;;10.49;70.78
45323;BME280;31382;50.200;8.674;2022-11-15T01:24:44;99994.16;;;10.51;71.10
45323;BME280;31382;50.200;8.674;2022-11-15T01:29:46;99986.47;;;10.48;70.92
45323;BME280;31382;50.200;8.674;2022-11-15T01:34:47;99985.53;;;10.41;70.88
45323;BME280;31382;50.200;8.674;2022-11-15T01:39:48;99986.28;;;10.35;70.84
45323;BME280;31382;50.200;8.674;2022-11-15T01:44:50;99983.53;;;10.20;71.17
45323;BME280;31382;50.200;8.674;2022-11-15T01:55:10;99976.03;;;10.16;71.72
45323;BME280;31382;50.200;8.674;2022-11-15T02:00:13;99975.88;;;10.32;71.49
45323;BME280;31382;50.200;8.674;2022-11-15T02:05:15;99956.25;;;10.46;71.64
45323;BME280;31382;50.200;8.674;2022-11-15T02:10:21;99948.31;;;10.53;71.34
45323;BME280;31382;50.200;8.674;2022-11-15T02:15:29;99949.31;;;10.52;71.52
45323;BME280;31382;50.200;8.674;2022-11-15T02:26:07;99931.50;;;10.66;71.73
45323;BME280;31382;50.200;8.674;2022-11-15T02:36:43;99919.34;;;10.85;71.35
45323;BME280;31382;50.200;8.674;2022-11-15T02:41:54;99920.25;;;10.92;71.26
45323;BME280;31382;50.200;8.674;2022-11-15T02:47:02;99912.00;;;10.94;71.48
45323;BME280;31382;50.200;8.674;2022-11-15T02:52:21;99921.97;;;11.00;71.65
45323;BME280;31382;50.200;8.674;2022-11-15T02:57:52;99915.09;;;11.12;71.59
45323;BME280;31382;50.200;8.674;2022-11-15T03:03:20;99914.38;;;11.03;71.61
45323;BME280;31382;50.200;8.674;2022-11-15T03:08:32;99909.50;;;11.14;71.70
45323;BME280;31382;50.200;8.674;2022-11-15T03:18:51;99900.50;;;11.21;71.29
45323;BME280;31382;50.200;8.674;2022-11-15T03:23:55;99893.63;;;10.97;71.91
45323;BME280;31382;50.200;8.674;2022-11-15T03:29:04;99906.72;;;11.00;71.87
45323;BME280;31382;50.200;8.674;2022-11-15T03:34:10;99907.59;;;11.07;71.53
45323;BME280;31382;50.200;8.674;2022-11-15T03:39:14;99907.41;;;11.09;71.76
45323;BME280;31382;50.200;8.674;2022-11-15T03:44:42;99910.75;;;11.11;71.68
45323;BME280;31382;50.200;8.674;2022-11-15T03:49:50;99906.81;;;10.92;71.77
45323;BME280;31382;50.200;8.674;2022-11-15T03:54:55;99897.41;;;11.03;72.01
45323;BME280;31382;50.200;8.674;2022-11-15T03:59:57;99908.03;;;11.11;71.44
45323;BME280;31382;50.200;8.674;2022-11-15T04:04:58;99905.44;;;11.18;71.44
45323;BME280;31382;50.200;8.674;2022-11-15T04:10:00;99908.78;;;11.20;71.70
45323;BME280;31382;50.200;8.674;2022-11-15T04:15:16;99899.31;;;11.24;71.61
45323;BME280;31382;50.200;8.674;2022-11-15T04:20:28;99903.91;;;11.30;71.44
45323;BME280;31382;50.200;8.674;2022-11-15T04:25:52;99908.19;;;11.24;71.68
45323;BME280;31382;50.200;8.674;2022-11-15T04:30:55;99891.28;;;11.30;71.74
45323;BME280;31382;50.200;8.674;2022-11-15T04:35:56;99889.88;;;11.35;71.43
45323;BME280;31382;50.200;8.674;2022-11-15T04:41:16;99893.66;;;11.40;71.37
45323;BME280;31382;50.200;8.674;2022-11-15T04:46:17;99875.09;;;11.45;71.52
45323;BME280;31382;50.200;8.674;2022-11-15T04:51:19;99876.53;;;11.48;71.18
45323;BME280;31382;50.200;8.674;2022-11-15T04:56:21;99871.34;;;11.46;71.10
45323;BME280;31382;50.200;8.674;2022-11-15T05:01:22;99872.63;;;11.50;71.20
45323;BME280;31382;50.200;8.674;2022-11-15T05:06:24;99863.53;;;11.51;71.53
45323;BME280;31382;50.200;8.674;2022-11-15T05:11:25;99861.03;;;11.50;71.66
45323;BME280;31382;50.200;8.674;2022-11-15T05:16:28;99866.59;;;11.48;71.21
45323;BME280;31382;50.200;8.674;2022-11-15T05:21:30;99866.41;;;11.50;71.15
45323;BME280;31382;50.200;8.674;2022-11-15T05:26:31;99858.16;;;11.51;71.43
45323;BME280;31382;50.200;8.674;2022-11-15T05:31:33;99853.97;;;11.49;71.20
45323;BME280;31382;50.200;8.674;2022-11-15T05:36:42;99848.41;;;11.50;71.66
45323;BME280;31382;50.200;8.674;2022-11-15T05:41:47;99847.44;;;11.58;71.72
45323;BME280;31382;50.200;8.674;2022-11-15T05:46:50;99853.25;;;11.62;71.18
45323;BME280;31382;50.200;8.674;2022-11-15T05:51:54;99839.81;;;11.62;71.71
45323;BME280;31382;50.200;8.674;2022-11-15T05:56:56;99837.28;;;11.60;71.45
45323;BME280;31382;50.200;8.674;2022-11-15T06:02:04;99836.28;;;11.61;71.50
45323;BME280;31382;50.200;8.674;2022-11-15T06:07:06;99841.66;;;11.61;71.65
45323;BME280;31382;50.200;8.674;2022-11-15T06:12:07;99846.00;;;11.62;71.17
45323;BME280;31382;50.200;8.674;2022-11-15T06:17:08;99847.69;;;11.63;71.46
45323;BME280;31382;50.200;8.674;2022-11-15T06:22:11;99837.09;;;11.62;71.61
45323;BME280;31382;50.200;8.674;2022-11-15T06:27:13;99855.66;;;11.50;71.86
45323;BME280;31382;50.200;8.674;2022-11-15T06:32:14;99841.03;;;11.59;71.74
45323;BME280;31382;50.200;8.674;2022-11-15T06:37:15;99851.53;;;11.54;72.31
45323;BME280;31382;50.200;8.674;2022-11-15T06:42:17;99850.06;;;11.51;72.36
45323;BME280;31382;50.200;8.674;2022-11-15T06:47:18;99852.94;;;11.71;71.84
45323;BME280;31382;50.200;8.674;2022-11-15T06:52:19;99850.97;;;11.87;71.48
45323;BME280;31382;50.200;8.674;2022-11-15T06:57:22;99840.88;;;11.96;71.10
45323;BME280;31382;50.200;8.674;2022-11-15T07:02:24;99842.97;;;12.00;71.12
45323;BME280;31382;50.200;8.674;2022-11-15T07:07:25;99846.31;;;12.02;71.10
45323;BME280;31382;50.200;8.674;2022-11-15T07:12:27;99860.19;;;11.99;71.15
45323;BME280;31382;50.200;8.674;2022-11-15T07:17:28;99856.25;;;12.02;70.90
45323;BME280;31382;50.200;8.674;2022-11-15T07:22:29;99858.13;;;12.01;70.76
45323;BME280;31382;50.200;8.674;2022-11-15T07:27:31;99858.13;;;12.01;70.70
45323;BME280;31382;50.200;8.674;2022-11-15T07:32:32;99863.53;;;12.08;71.02
45323;BME280;31382;50.200;8.674;2022-11-15T07:37:33;99862.13;;;12.12;70.78
45323;BME280;31382;50.200;8.674;2022-11-15T07:42:35;99860.47;;;12.11;71.08
45323;BME280;31382;50.200;8.674;2022-11-15T07:47:55;99855.16;;;12.24;71.23
45323;BME280;31382;50.200;8.674;2022-11-15T07:52:58;99837.59;;;12.42;71.10
45323;BME280;31382;50.200;8.674;2022-11-15T07:58:05;99849.06;;;12.50;70.74
45323;BME280;31382;50.200;8.674;2022-11-15T08:03:12;99848.28;;;12.63;70.61
45323;BME280;31382;50.200;8.674;2022-11-15T08:08:13;99854.78;;;12.82;70.14
45323;BME280;31382;50.200;8.674;2022-11-15T08:13:15;99846.72;;;12.96;70.20
45323;BME280;31382;50.200;8.674;2022-11-15T08:18:17;99854.44;;;13.12;69.71
45323;BME280;31382;50.200;8.674;2022-11-15T08:23:18;99858.44;;;13.29;69.68
45323;BME280;31382;50.200;8.674;2022-11-15T08:28:19;99860.09;;;13.44;69.29
45323;BME280;31382;50.200;8.674;2022-11-15T08:33:22;99853.88;;;13.57;68.92
45323;BME280;31382;50.200;8.674;2022-11-15T08:38:23;99850.34;;;13.69;68.74
45323;BME280;31382;50.200;8.674;2022-11-15T08:43:25;99850.34;;;13.83;68.51
45323;BME280;31382;50.200;8.674;2022-11-15T08:48:26;99835.56;;;13.92;68.18
45323;BME280;31382;50.200;8.674;2022-11-15T08:53:28;99835.34;;;14.00;68.19
45323;BME280;31382;50.200;8.674;2022-11-15T08:58:29;99839.69;;;14.08;68.06
45323;BME280;31382;50.200;8.674;2022-11-15T09:03:31;99844.63;;;14.18;67.73
45323;BME280;31382;50.200;8.674;2022-11-15T09:08:33;99838.78;;;14.27;67.51
45323;BME280;31382;50.200;8.674;2022-11-15T09:13:49;99843.97;;;14.29;67.32
45323;BME280;31382;50.200;8.674;2022-11-15T09:18:51;99835.28;;;14.20;67.67
45323;BME280;31382;50.200;8.674;2022-11-15T09:23:53;99831.53;;;14.28;67.46
45323;BME280;31382;50.200;8.674;2022-11-15T09:28:55;99833.66;;;14.13;67.66
45323;BME280;31382;50.200;8.674;2022-11-15T09:33:56;99825.72;;;14.18;67.59
45323;BME280;31382;50.200;8.674;2022-11-15T09:38:58;99815.47;;;14.40;66.88
45323;BME280;31382;50.200;8.674;2022-11-15T09:49:14;99825.63;;;14.58;66.90
45323;BME280;31382;50.200;8.674;2022-11-15T09:54:34;99819.28;;;14.77;66.46
45323;BME280;31382;50.200;8.674;2022-11-15T09:59:59;99809.97;;;14.98;66.89
45323;BME280;31382;50.200;8.674;2022-11-15T10:05:23;99810.59;;;15.00;66.45
45323;BME280;31382;50.200;8.674;2022-11-15T10:10:32;99803.59;;;15.18;66.21
45323;BME280;31382;50.200;8.674;2022-11-15T10:15:44;99793.88;;;15.35;65.72
45323;BME280;31382;50.200;8.674;2022-11-15T10:20:51;99764.13;;;15.54;64.90
45323;BME280;31382;50.200;8.674;2022-11-15T10:25:58;99756.66;;;15.74;64.55
45323;BME280;31382;50.200;8.674;2022-11-15T10:31:27;99764.88;;;15.86;64.14
45323;BME280;31382;50.200;8.674;2022-11-15T10:36:29;99765.09;;;15.84;64.10
45323;BME280;31382;50.200;8.674;2022-11-15T10:41:35;99759.22;;;15.88;63.62
45323;BME280;31382;50.200;8.674;2022-11-15T10:46:39;99746.97;;;16.03;63.13
45323;BME280;31382;50.200;8.674;2022-11-15T10:56:57;99729.16;;;16.26;62.78
45323;BME280;31382;50.200;8.674;2022-11-15T11:02:00;99723.56;;;16.39;62.53
45323;BME280;31382;50.200;8.674;2022-11-15T11:07:01;99720.38;;;16.42;62.55
45323;BME280;31382;50.200;8.674;2022-11-15T11:12:05;99709.16;;;16.39;62.52
45323;BME280;31382;50.200;8.674;2022-11-15T11:17:23;99700.97;;;16.27;62.47
45323;BME280;31382;50.200;8.674;2022-11-15T11:22:37;99685.44;;;16.34;62.67
45323;BME280;31382;50.200;8.674;2022-11-15T11:28:33;99680.22;;;16.33;62.34
45323;BME280;31382;50.200;8.674;2022-11-15T11:33:22;99676.84;;;16.37;61.76
45323;BME280;31382;50.200;8.674;2022-11-15T11:49:28;99657.19;;;16.54;61.57
45323;BME280;31382;50.200;8.674;2022-11-15T12:00:22;99648.81;;;16.55;61.69
45323;BME280;31382;50.200;8.674;2022-11-15T12:05:43;99649.31;;;16.64;61.47
45323;BME280;31382;50.200;8.674;2022-11-15T12:10:50;99637.66;;;16.75;61.22
45323;BME280;31382;50.200;8.674;2022-11-15T12:16:02;99628.44;;;16.76;61.22
45323;BME280;31382;50.200;8.674;2022-11-15T12:26:49;99606.16;;;16.98;60.82
45323;BME280;31382;50.200;8.674;2022-11-15T12:31:54;99609.00;;;17.15;60.63
45323;BME280;31382;50.200;8.674;2022-11-15T12:36:57;99600.84;;;17.27;60.34
45323;BME280;31382;50.200;8.674;2022-11-15T12:52:09;99604.63;;;17.02;60.64
45323;BME280;31382;50.200;8.674;2022-11-15T13:02:38;99573.91;;;16.78;60.92
45323;BME280;31382;50.200;8.674;2022-11-15T13:17:50;99557.78;;;16.95;60.58
45323;BME280;31382;50.200;8.674;2022-11-15T13:33:21;99541.34;;;16.54;62.17
45323;BME280;31382;50.200;8.674;2022-11-15T13:38:37;99535.22;;;16.47;62.85
45323;BME280;31382;50.200;8.674;2022-11-15T13:43:39;99534.97;;;16.60;62.54
45323;BME280;31382;50.200;8.674;2022-11-15T13:48:42;99520.00;;;16.58;62.67
45323;BME280;31382;50.200;8.674;2022-11-15T13:53:47;99521.31;;;16.67;62.62
45323;BME280;31382;50.200;8.674;2022-11-15T13:58:51;99519.19;;;16.69;62.78
45323;BME280;31382;50.200;8.674;2022-11-15T14:03:59;99507.38;;;16.75;62.41
45323;BME280;31382;50.200;8.674;2022-11-15T14:14:13;99487.06;;;16.78;62.09
45323;BME280;31382;50.200;8.674;2022-11-15T14:24:21;99487.88;;;16.90;62.20
45323;BME280;31382;50.200;8.674;2022-11-15T14:29:27;99475.50;;;16.94;62.11
45323;BME280;31382;50.200;8.674;2022-11-15T14:34:31;99472.53;;;16.96;62.19
45323;BME280;31382;50.200;8.674;2022-11-15T14:39:33;99469.25;;;16.94;62.41
45323;BME280;31382;50.200;8.674;2022-11-15T14:44:34;99456.50;;;16.94;62.34
45323;BME280;31382;50.200;8.674;2022-11-15T14:49:35;99449.41;;;16.93;62.45
45323;BME280;31382;50.200;8.674;2022-11-15T14:54:37;99452.59;;;16.90;62.25
45323;BME280;31382;50.200;8.674;2022-11-15T14:59:38;99452.16;;;16.81;62.57
45323;BME280;31382;50.200;8.674;2022-11-15T15:04:40;99432.09;;;16.71;63.10
45323;BME280;31382;50.200;8.674;2022-11-15T15:09:42;99414.53;;;16.50;63.87
45323;BME280;31382;50.200;8.674;2022-11-15T15:14:44;99405.72;;;16.31;64.67
45323;BME280;31382;50.200;8.674;2022-11-15T15:19:46;99400.28;;;16.19;64.78
45323;BME280;31382;50.200;8.674;2022-11-15T15:24:47;99389.81;;;16.11;65.08
45323;BME280;31382;50.200;8.674;2022-11-15T15:29:49;99391.69;;;15.98;65.33
45323;BME280;31382;50.200;8.674;2022-11-15T15:34:50;99400.44;;;15.58;66.39
45323;BME280;31382;50.200;8.674;2022-11-15T15:39:55;99379.94;;;15.51;66.58
45323;BME280;31382;50.200;8.674;2022-11-15T15:44:57;99373.81;;;15.55;66.52
45323;BME280;31382;50.200;8.674;2022-11-15T15:49:58;99363.69;;;15.51;66.50
45323;BME280;31382;50.200;8.674;2022-11-15T15:55:00;99361.06;;;15.44;66.57
45323;BME280;31382;50.200;8.674;2022-11-15T16:00:03;99361.78;;;15.39;66.81
45323;BME280;31382;50.200;8.674;2022-11-15T16:05:05;99346.78;;;15.25;67.13
45323;BME280;31382;50.200;8.674;2022-11-15T16:10:25;99341.75;;;14.98;67.97
45323;BME280;31382;50.200;8.674;2022-11-15T16:15:29;99345.84;;;14.89;68.15
45323;BME280;31382;50.200;8.674;2022-11-15T16:25:48;99332.53;;;14.87;68.02
45323;BME280;31382;50.200;8.674;2022-11-15T16:31:09;99318.78;;;14.89;67.91
45323;BME280;31382;50.200;8.674;2022-11-15T16:36:24;99323.41;;;14.70;68.54
45323;BME280;31382;50.200;8.674;2022-11-15T16:41:31;99330.88;;;14.38;69.47
45323;BME280;31382;50.200;8.674;2022-11-15T16:46:32;99328.00;;;14.33;69.85
45323;BME280;31382;50.200;8.674;2022-11-15T16:51:34;99322.34;;;14.53;69.21
45323;BME280;31382;50.200;8.674;2022-11-15T16:56:35;99322.13;;;14.54;69.15
45323;BME280;31382;50.200;8.674;2022-11-15T17:01:37;99317.94;;;14.40;69.47
45323;BME280;31382;50.200;8.674;2022-11-15T17:06:47;99305.53;;;14.51;69.38
45323;BME280;31382;50.200;8.674;2022-11-15T17:11:49;99307.63;;;14.48;69.19
45323;BME280;31382;50.200;8.674;2022-11-15T17:16:51;99298.53;;;14.43;69.18
45323;BME280;31382;50.200;8.674;2022-11-15T17:21:54;99295.25;;;14.41;69.28
45323;BME280;31382;50.200;8.674;2022-11-15T17:26:56;99281.50;;;14.42;69.15
45323;BME280;31382;50.200;8.674;2022-11-15T17:31:57;99277.38;;;14.21;69.74
45323;BME280;31382;50.200;8.674;2022-11-15T17:36:59;99285.81;;;14.13;69.80
45323;BME280;31382;50.200;8.674;2022-11-15T17:42:00;99269.75;;;14.18;70.10
45323;BME280;31382;50.200;8.674;2022-11-15T17:47:01;99271.59;;;14.18;69.53
45323;BME280;31382;50.200;8.674;2022-11-15T17:52:03;99263.75;;;14.16;69.48
45323;BME280;31382;50.200;8.674;2022-11-15T17:57:04;99254.44;;;14.12;69.78
45323;BME280;31382;50.200;8.674;2022-11-15T18:02:05;99247.84;;;14.08;69.77
45323;BME280;31382;50.200;8.674;2022-11-15T18:07:07;99252.78;;;14.11;69.65
45323;BME280;31382;50.200;8.674;2022-11-15T18:12:09;99245.19;;;14.01;70.07
45323;BME280;31382;50.200;8.674;2022-11-15T18:17:11;99244.31;;;13.89;70.35
45323;BME280;31382;50.200;8.674;2022-11-15T18:22:12;99237.22;;;13.88;70.58
45323;BME280;31382;50.200;8.674;2022-11-15T18:27:14;99234.25;;;13.96;70.34
45323;BME280;31382;50.200;8.674;2022-11-15T18:32:15;99220.00;;;13.89;70.34
45323;BME280;31382;50.200;8.674;2022-11-15T18:37:17;99227.72;;;13.85;70.45
45323;BME280;31382;50.200;8.674;2022-11-15T18:42:19;99226.28;;;13.83;70.57
45323;BME280;31382;50.200;8.674;2022-11-15T18:47:20;99230.72;;;13.96;70.06
45323;BME280;31382;50.200;8.674;2022-11-15T18:52:21;99227.72;;;13.85;70.46
45323;BME280;31382;50.200;8.674;2022-11-15T18:57:23;99225.16;;;13.91;70.58
45323;BME280;31382;50.200;8.674;2022-11-15T19:02:24;99213.00;;;14.00;70.10
45323;BME280;31382;50.200;8.674;2022-11-15T19:07:26;99211.25;;;14.05;70.10
45323;BME280;31382;50.200;8.674;2022-11-15T19:12:27;99187.09;;;14.11;69.92
45323;BME280;31382;50.200;8.674;2022-11-15T19:17:28;99199.03;;;14.03;69.91
45323;BME280;31382;50.200;8.674;2022-11-15T19:22:30;99192.22;;;14.00;70.38
45323;BME280;31382;50.200;8.674;2022-11-15T19:27:31;99195.44;;;14.09;69.96
45323;BME280;31382;50.200;8.674;2022-11-15T19:32:38;99188.28;;;14.15;69.74
45323;BME280;31382;50.200;8.674;2022-11-15T19:37:40;99184.78;;;14.14;69.86
45323;BME280;31382;50.200;8.674;2022-11-15T19:42:41;99189.47;;;14.19;69.65
45323;BME280;31382;50.200;8.674;2022-11-15T19:47:42;99182.56;;;14.23;69.29
45323;BME280;31382;50.200;8.674;2022-11-15T19:52:44;99181.38;;;14.19;69.46
45323;BME280;31382;50.200;8.674;2022-11-15T19:57:45;99179.03;;;14.22;69.20
45323;BME280;31382;50.200;8.674;2022-11-15T20:02:47;99169.88;;;14.23;69.14
45323;BME280;31382;50.200;8.674;2022-11-15T20:07:49;99168.59;;;14.26;69.41
45323;BME280;31382;50.200;8.674;2022-11-15T20:12:50;99166.50;;;14.28;69.15
45323;BME280;31382;50.200;8.674;2022-11-15T20:17:51;99152.97;;;14.28;69.27
45323;BME280;31382;50.200;8.674;2022-11-15T20:22:53;99156.94;;;14.25;69.27
45323;BME280;31382;50.200;8.674;2022-11-15T20:27:54;99147.53;;;14.16;69.83
45323;BME280;31382;50.200;8.674;2022-11-15T20:32:55;99147.31;;;13.99;70.12
45323;BME280;31382;50.200;8.674;2022-11-15T20:37:57;99144.72;;;13.93;70.36
45323;BME280;31382;50.200;8.674;2022-11-15T20:42:58;99135.66;;;13.87;70.56
45323;BME280;31382;50.200;8.674;2022-11-15T20:48:00;99133.97;;;13.86;70.63
45323;BME280;31382;50.200;8.674;2022-11-15T20:53:01;99121.53;;;13.85;70.72
45323;BME280;31382;50.200;8.674;2022-11-15T20:58:02;99121.16;;;13.81;71.06
45323;BME280;31382;50.200;8.674;2022-11-15T21:03:04;99120.56;;;13.79;70.89
45323;BME280;31382;50.200;8.674;2022-11-15T21:08:10;99113.09;;;13.63;71.13
45323;BME280;31382;50.200;8.674;2022-11-15T21:13:11;99117.31;;;13.59;71.47
45323;BME280;31382;50.200;8.674;2022-11-15T21:18:13;99096.22;;;13.67;71.41
45323;BME280;31382;50.200;8.674;2022-11-15T21:23:15;99097.41;;;13.72;71.07
45323;BME280;31382;50.200;8.674;2022-11-15T21:28:16;99091.56;;;13.75;71.53
45323;BME280;31382;50.200;8.674;2022-11-15T21:33:18;99081.19;;;13.72;71.32
45323;BME280;31382;50.200;8.674;2022-11-15T21:38:20;99072.72;;;13.68;71.46
45323;BME280;31382;50.200;8.674;2022-11-15T21:43:23;99074.16;;;13.71;71.22
45323;BME280;31382;50.200;8.674;2022-11-15T21:48:26;99072.50;;;13.69;71.30
45323;BME280;31382;50.200;8.674;2022-11-15T21:53:28;99064.41;;;13.69;71.48
45323;BME280;31382;50.200;8.674;2022-11-15T21:58:30;99067.19;;;13.63;71.76
45323;BME280;31382;50.200;8.674;2022-11-15T22:03:32;99063.75;;;13.56;71.77
45323;BME280;31382;50.200;8.674;2022-11-15T22:08:33;99055.44;;;13.57;71.92
45323;BME280;31382;50.200;8.674;2022-11-15T22:13:35;99059.16;;;13.56;71.73
45323;BME280;31382;50.200;8.674;2022-11-15T22:18:37;99049.06;;;13.52;72.02
45323;BME280;31382;50.200;8.674;2022-11-15T22:23:40;99037.28;;;13.46;72.14
45323;BME280;31382;50.200;8.674;2022-11-15T22:28:42;99040.41;;;13.24;72.97
45323;BME280;31382;50.200;8.674;2022-11-15T22:33:43;99040.56;;;13.11;73.32
45323;BME280;31382;50.200;8.674;2022-11-15T22:38:45;99022.53;;;13.12;73.07
45323;BME280;31382;50.200;8.674;2022-11-15T22:43:46;99026.63;;;13.14;73.79
45323;BME280;31382;50.200;8.674;2022-11-15T22:48:48;99027.38;;;13.03;73.56
45323;BME280;31382;50.200;8.674;2022-11-15T22:53:49;99025.88;;;12.88;73.76
45323;BME280;31382;50.200;8.674;2022-11-15T22:58:51;99021.69;;;12.93;73.78
45323;BME280;31382;50.200;8.674;2022-11-15T23:03:52;99013.00;;;13.09;73.98
45323;BME280;31382;50.200;8.674;2022-11-15T23:08:54;99013.31;;;13.19;73.37
45323;BME280;31382;50.200;8.674;2022-11-15T23:13:55;99018.72;;;13.19;73.69
45323;BME280;31382;50.200;8.674;2022-11-15T23:18:59;99002.94;;;13.16;73.68
45323;BME280;31382;50.200;8.674;2022-11-15T23:24:00;99004.03;;;13.15;74.05
45323;BME280;31382;50.200;8.674;2022-11-15T23:29:02;99006.56;;;13.10;73.80
45323;BME280;31382;50.200;8.674;2022-11-15T23:34:03;98998.09;;;13.06;74.09
45323;BME280;31382;50.200;8.674;2022-11-15T23:39:05;98992.91;;;13.05;74.51
45323;BME280;31382;50.200;8.674;2022-11-15T23:44:07;98988.19;;;13.00;74.44
45323;BME280;31382;50.200;8.674;2022-11-15T23:49:08;98979.88;;;13.02;74.18
45323;BME280;31382;50.200;8.674;2022-11-15T23:54:10;98987.75;;;13.03;74.31
45323;BME280;31382;50.200;8.674;2022-11-15T23:59:11;98981.41;;;12.98;74.46
